JAL18 RJTT-RJCC
Flight info
| Callsign | JAL18 |
|---|---|
| Flight time | 1h 5m |
| Altitude | 37000 |
| Route | AKAGI Y88 NIKKO Y880 NASNO Y117 JYONA Y11 NAVER |
| Aircraft | A359/H-SDE2E3GHIJ3J4J5LM1ORWXY/LB1D1 |
Departure
| Time | 2026-05-04 03:02 |
|---|---|
| Airport | Tokyo Haneda International Airport (RJTT) |
Arrival
| Time | 2026-05-04 04:08 |
|---|---|
| Airport | New Chitose Airport (RJCC) |
| Time | Latitude | Longitude | Altitude | Speed | Heading |
|---|---|---|---|---|---|
| 2026-05-04 02:19 | 35.54471 | 139.77100 | 33 ft | 0 kts | 240° |
| 2026-05-04 02:24 | 35.54720 | 139.78398 | 33 ft | 0 kts | 60° |
| 2026-05-04 02:50 | 35.54713 | 139.78383 | 33 ft | 2 kts | 60° |
| 2026-05-04 02:50 | 35.54706 | 139.78368 | 33 ft | 2 kts | 60° |
| 2026-05-04 02:50 | 35.54698 | 139.78352 | 33 ft | 2 kts | 60° |
| 2026-05-04 02:50 | 35.54691 | 139.78336 | 33 ft | 2 kts | 60° |
| 2026-05-04 02:51 | 35.54683 | 139.78320 | 33 ft | 2 kts | 60° |
| 2026-05-04 02:51 | 35.54678 | 139.78308 | 33 ft | 0 kts | 60° |
| 2026-05-04 02:51 | 35.54670 | 139.78294 | 33 ft | 2 kts | 48° |
| 2026-05-04 02:51 | 35.54659 | 139.78282 | 33 ft | 2 kts | 31° |
| 2026-05-04 02:52 | 35.54646 | 139.78275 | 33 ft | 2 kts | 16° |
| 2026-05-04 02:52 | 35.54631 | 139.78271 | 33 ft | 2 kts | 1° |
| 2026-05-04 02:52 | 35.54616 | 139.78273 | 33 ft | 2 kts | 346° |
| 2026-05-04 02:52 | 35.54603 | 139.78279 | 33 ft | 1 kts | 331° |
| 2026-05-04 02:53 | 35.54604 | 139.78278 | 33 ft | 2 kts | 331° |
| 2026-05-04 02:53 | 35.54641 | 139.78253 | 33 ft | 7 kts | 329° |
| 2026-05-04 02:53 | 35.54668 | 139.78233 | 33 ft | 2 kts | 330° |
| 2026-05-04 02:53 | 35.54671 | 139.78232 | 33 ft | 0 kts | 330° |
| 2026-05-04 02:57 | 35.54689 | 139.78218 | 33 ft | 7 kts | 329° |
| 2026-05-04 02:57 | 35.54765 | 139.78163 | 33 ft | 16 kts | 329° |
| 2026-05-04 02:57 | 35.54899 | 139.78070 | 33 ft | 26 kts | 330° |
| 2026-05-04 02:58 | 35.55065 | 139.77951 | 33 ft | 28 kts | 330° |
| 2026-05-04 02:58 | 35.55219 | 139.77840 | 33 ft | 12 kts | 321° |
| 2026-05-04 02:58 | 35.55230 | 139.77750 | 33 ft | 9 kts | 271° |
| 2026-05-04 02:58 | 35.55264 | 139.77690 | 33 ft | 15 kts | 320° |
| 2026-05-04 02:59 | 35.55365 | 139.77612 | 33 ft | 18 kts | 329° |
| 2026-05-04 02:59 | 35.55542 | 139.77486 | 33 ft | 32 kts | 330° |
| 2026-05-04 02:59 | 35.55744 | 139.77342 | 33 ft | 34 kts | 329° |
| 2026-05-04 02:59 | 35.55956 | 139.77193 | 33 ft | 36 kts | 330° |
| 2026-05-04 03:00 | 35.56161 | 139.77046 | 33 ft | 20 kts | 325° |
| 2026-05-04 03:00 | 35.56173 | 139.76968 | 33 ft | 0 kts | 204° |
| 2026-05-04 03:00 | 35.56149 | 139.76947 | 33 ft | 18 kts | 218° |
| 2026-05-04 03:00 | 35.56062 | 139.76881 | 33 ft | 13 kts | 187° |
| 2026-05-04 03:01 | 35.56005 | 139.76903 | 33 ft | 0 kts | 129° |
| 2026-05-04 03:01 | 35.55971 | 139.76932 | 33 ft | 15 kts | 150° |
| 2026-05-04 03:01 | 35.55813 | 139.77035 | 33 ft | 43 kts | 152° |
| 2026-05-04 03:01 | 35.55362 | 139.77331 | 33 ft | 104 kts | 155° |
| 2026-05-04 03:02 | 35.54538 | 139.77925 | 37 ft | 168 kts | 155° |
| 2026-05-04 03:02 | 35.53436 | 139.78713 | 450 ft | 189 kts | 152° |
| 2026-05-04 03:02 | 35.52357 | 139.79538 | 1257 ft | 180 kts | 155° |
| 2026-05-04 03:02 | 35.51322 | 139.80316 | 2045 ft | 177 kts | 155° |
| 2026-05-04 03:03 | 35.50235 | 139.81113 | 2581 ft | 191 kts | 156° |
| 2026-05-04 03:03 | 35.49043 | 139.81985 | 3120 ft | 207 kts | 156° |
| 2026-05-04 03:03 | 35.47775 | 139.82910 | 3663 ft | 223 kts | 157° |
| 2026-05-04 03:03 | 35.46387 | 139.83920 | 4232 ft | 240 kts | 156° |
| 2026-05-04 03:04 | 35.45059 | 139.85303 | 4784 ft | 272 kts | 132° |
| 2026-05-04 03:04 | 35.44362 | 139.87596 | 5437 ft | 305 kts | 98° |
| 2026-05-04 03:04 | 35.44730 | 139.90173 | 6235 ft | 321 kts | 68° |
| 2026-05-04 03:04 | 35.45788 | 139.92606 | 7063 ft | 330 kts | 57° |
| 2026-05-04 03:05 | 35.47054 | 139.95033 | 7905 ft | 338 kts | 57° |
| 2026-05-04 03:05 | 35.48393 | 139.97418 | 8782 ft | 343 kts | 45° |
| 2026-05-04 03:05 | 35.50308 | 139.99074 | 9591 ft | 336 kts | 12° |
| 2026-05-04 03:05 | 35.52534 | 139.99437 | 10414 ft | 316 kts | 341° |
| 2026-05-04 03:06 | 35.54596 | 139.98763 | 11082 ft | 312 kts | 327° |
| 2026-05-04 03:06 | 35.56671 | 139.97789 | 11628 ft | 327 kts | 328° |
| 2026-05-04 03:06 | 35.58897 | 139.96838 | 12119 ft | 351 kts | 333° |
| 2026-05-04 03:06 | 35.61384 | 139.96248 | 12582 ft | 379 kts | 344° |
| 2026-05-04 03:07 | 35.64129 | 139.96129 | 13024 ft | 404 kts | 352° |
| 2026-05-04 03:07 | 35.66966 | 139.96306 | 13601 ft | 417 kts | 355° |
| 2026-05-04 03:07 | 35.69911 | 139.96549 | 13993 ft | 432 kts | 354° |
| 2026-05-04 03:07 | 35.72956 | 139.96492 | 14292 ft | 438 kts | 345° |
| 2026-05-04 03:08 | 35.75936 | 139.95781 | 14518 ft | 439 kts | 334° |
| 2026-05-04 03:08 | 35.78826 | 139.94548 | 14555 ft | 436 kts | 329° |
| 2026-05-04 03:08 | 35.81639 | 139.93195 | 14553 ft | 435 kts | 328° |
| 2026-05-04 03:08 | 35.84455 | 139.91817 | 14569 ft | 435 kts | 329° |
| 2026-05-04 03:09 | 35.87300 | 139.90448 | 14581 ft | 435 kts | 329° |
| 2026-05-04 03:09 | 35.90112 | 139.89114 | 14580 ft | 436 kts | 329° |
| 2026-05-04 03:09 | 35.92964 | 139.87767 | 14609 ft | 441 kts | 329° |
| 2026-05-04 03:09 | 35.95854 | 139.86403 | 15103 ft | 446 kts | 329° |
| 2026-05-04 03:10 | 35.98775 | 139.85059 | 15864 ft | 448 kts | 331° |
| 2026-05-04 03:10 | 36.01807 | 139.83826 | 16466 ft | 454 kts | 333° |
| 2026-05-04 03:10 | 36.04865 | 139.82649 | 17069 ft | 458 kts | 333° |
| 2026-05-04 03:10 | 36.07881 | 139.81500 | 17602 ft | 462 kts | 332° |
| 2026-05-04 03:11 | 36.10962 | 139.80324 | 18130 ft | 466 kts | 332° |
| 2026-05-04 03:11 | 36.14099 | 139.79141 | 18613 ft | 472 kts | 333° |
| 2026-05-04 03:11 | 36.17245 | 139.77991 | 19152 ft | 474 kts | 333° |
| 2026-05-04 03:11 | 36.20425 | 139.76834 | 19603 ft | 479 kts | 333° |
| 2026-05-04 03:12 | 36.23676 | 139.75641 | 20064 ft | 482 kts | 333° |
| 2026-05-04 03:12 | 36.26857 | 139.74471 | 20556 ft | 485 kts | 333° |
| 2026-05-04 03:12 | 36.30113 | 139.73267 | 20983 ft | 488 kts | 332° |
| 2026-05-04 03:12 | 36.33468 | 139.72246 | 21369 ft | 507 kts | 343° |
| 2026-05-04 03:13 | 36.37067 | 139.72378 | 21715 ft | 538 kts | 4° |
| 2026-05-04 03:13 | 36.40644 | 139.73912 | 22132 ft | 559 kts | 22° |
| 2026-05-04 03:13 | 36.43855 | 139.76775 | 22548 ft | 572 kts | 42° |
| 2026-05-04 03:13 | 36.46361 | 139.80585 | 22982 ft | 577 kts | 58° |
| 2026-05-04 03:14 | 36.48425 | 139.84831 | 23398 ft | 579 kts | 57° |
| 2026-05-04 03:14 | 36.51058 | 139.88638 | 23583 ft | 582 kts | 38° |
| 2026-05-04 03:14 | 36.54358 | 139.91498 | 24106 ft | 575 kts | 27° |
| 2026-05-04 03:14 | 36.57843 | 139.93976 | 24455 ft | 578 kts | 24° |
| 2026-05-04 03:15 | 36.61338 | 139.96376 | 24769 ft | 582 kts | 24° |
| 2026-05-04 03:15 | 36.64897 | 139.98895 | 25114 ft | 586 kts | 25° |
| 2026-05-04 03:15 | 36.68387 | 140.01480 | 25431 ft | 590 kts | 26° |
| 2026-05-04 03:15 | 36.71903 | 140.04170 | 25787 ft | 593 kts | 27° |
| 2026-05-04 03:16 | 36.75397 | 140.06891 | 26127 ft | 596 kts | 27° |
| 2026-05-04 03:16 | 36.78927 | 140.09656 | 26437 ft | 599 kts | 27° |
| 2026-05-04 03:16 | 36.82459 | 140.12419 | 26739 ft | 601 kts | 27° |
| 2026-05-04 03:16 | 36.86057 | 140.15034 | 27010 ft | 600 kts | 21° |
| 2026-05-04 03:17 | 36.89846 | 140.17108 | 27351 ft | 593 kts | 13° |
| 2026-05-04 03:17 | 36.93731 | 140.18558 | 27637 ft | 586 kts | 5° |
| 2026-05-04 03:17 | 36.97719 | 140.19582 | 27890 ft | 586 kts | 2° |
| 2026-05-04 03:17 | 37.01767 | 140.20483 | 28140 ft | 588 kts | 1° |
| 2026-05-04 03:18 | 37.05815 | 140.21367 | 28400 ft | 590 kts | 1° |
| 2026-05-04 03:18 | 37.09817 | 140.22253 | 28662 ft | 594 kts | 1° |
| 2026-05-04 03:18 | 37.13943 | 140.23201 | 28885 ft | 596 kts | 1° |
| 2026-05-04 03:18 | 37.18000 | 140.24155 | 29140 ft | 597 kts | 2° |
| 2026-05-04 03:19 | 37.22099 | 140.25130 | 29348 ft | 599 kts | 2° |
| 2026-05-04 03:19 | 37.26164 | 140.26106 | 29531 ft | 602 kts | 2° |
| 2026-05-04 03:19 | 37.30291 | 140.27101 | 29715 ft | 604 kts | 2° |
| 2026-05-04 03:19 | 37.34434 | 140.28101 | 29903 ft | 606 kts | 2° |
| 2026-05-04 03:20 | 37.38561 | 140.29100 | 30039 ft | 608 kts | 2° |
| 2026-05-04 03:20 | 37.42701 | 140.30107 | 30196 ft | 609 kts | 2° |
| 2026-05-04 03:20 | 37.46850 | 140.31110 | 30350 ft | 610 kts | 2° |
| 2026-05-04 03:20 | 37.51012 | 140.32121 | 30482 ft | 612 kts | 2° |
| 2026-05-04 03:21 | 37.55200 | 140.33139 | 30636 ft | 613 kts | 2° |
| 2026-05-04 03:21 | 37.59400 | 140.34155 | 30807 ft | 614 kts | 2° |
| 2026-05-04 03:21 | 37.63600 | 140.35176 | 31013 ft | 613 kts | 2° |
| 2026-05-04 03:21 | 37.67797 | 140.36221 | 31255 ft | 614 kts | 2° |
| 2026-05-04 03:22 | 37.71954 | 140.37253 | 31535 ft | 612 kts | 1° |
| 2026-05-04 03:22 | 37.76159 | 140.38263 | 31928 ft | 609 kts | 1° |
| 2026-05-04 03:22 | 37.80288 | 140.39255 | 32611 ft | 603 kts | 1° |
| 2026-05-04 03:22 | 37.84363 | 140.40228 | 32941 ft | 605 kts | 1° |
| 2026-05-04 03:23 | 37.88473 | 140.41223 | 33535 ft | 599 kts | 1° |
| 2026-05-04 03:23 | 37.92548 | 140.42223 | 34455 ft | 591 kts | 1° |
| 2026-05-04 03:23 | 37.96560 | 140.43208 | 35295 ft | 585 kts | 1° |
| 2026-05-04 03:23 | 38.00538 | 140.44185 | 35910 ft | 582 kts | 1° |
| 2026-05-04 03:24 | 38.04505 | 140.45157 | 36404 ft | 580 kts | 1° |
| 2026-05-04 03:24 | 38.08411 | 140.46117 | 36600 ft | 579 kts | 1° |
| 2026-05-04 03:24 | 38.12377 | 140.47090 | 36616 ft | 579 kts | 1° |
| 2026-05-04 03:25 | 38.20244 | 140.49031 | 36624 ft | 577 kts | 0° |
| 2026-05-04 03:25 | 38.28138 | 140.50981 | 36626 ft | 578 kts | 1° |
| 2026-05-04 03:26 | 38.36042 | 140.52908 | 36626 ft | 582 kts | 1° |
| 2026-05-04 03:26 | 38.43964 | 140.54874 | 36611 ft | 581 kts | 1° |
| 2026-05-04 03:27 | 38.51955 | 140.56857 | 36611 ft | 589 kts | 1° |
| 2026-05-04 03:27 | 38.60027 | 140.58864 | 36601 ft | 591 kts | 1° |
| 2026-05-04 03:28 | 38.68098 | 140.60877 | 36583 ft | 592 kts | 0° |
| 2026-05-04 03:28 | 38.76153 | 140.62901 | 36579 ft | 591 kts | 1° |
| 2026-05-04 03:29 | 38.84249 | 140.64922 | 36597 ft | 594 kts | 0° |
| 2026-05-04 03:29 | 38.92378 | 140.66991 | 36575 ft | 597 kts | 2° |
| 2026-05-04 03:30 | 39.00430 | 140.69060 | 36568 ft | 593 kts | 1° |
| 2026-05-04 03:30 | 39.08544 | 140.71097 | 36556 ft | 598 kts | 1° |
| 2026-05-04 03:31 | 39.16692 | 140.73163 | 36546 ft | 595 kts | 1° |
| 2026-05-04 03:31 | 39.24785 | 140.75215 | 36550 ft | 594 kts | 1° |
| 2026-05-04 03:32 | 39.32943 | 140.77277 | 36543 ft | 597 kts | 1° |
| 2026-05-04 03:32 | 39.41101 | 140.79350 | 36547 ft | 599 kts | 1° |
| 2026-05-04 03:33 | 39.49225 | 140.81436 | 36542 ft | 598 kts | 1° |
| 2026-05-04 03:33 | 39.57431 | 140.83534 | 36543 ft | 599 kts | 1° |
| 2026-05-04 03:34 | 39.65610 | 140.85626 | 36533 ft | 601 kts | 1° |
| 2026-05-04 03:34 | 39.73766 | 140.87726 | 36518 ft | 602 kts | 1° |
| 2026-05-04 03:35 | 39.81998 | 140.89851 | 36511 ft | 603 kts | 2° |
| 2026-05-04 03:35 | 39.90196 | 140.91965 | 36511 ft | 605 kts | 1° |
| 2026-05-04 03:36 | 39.98468 | 140.94109 | 36496 ft | 603 kts | 1° |
| 2026-05-04 03:36 | 40.06673 | 140.96234 | 36502 ft | 603 kts | 2° |
| 2026-05-04 03:37 | 40.14917 | 140.98369 | 36504 ft | 605 kts | 2° |
| 2026-05-04 03:37 | 40.23188 | 141.00534 | 36506 ft | 604 kts | 2° |
| 2026-05-04 03:38 | 40.31387 | 141.02673 | 36489 ft | 607 kts | 2° |
| 2026-05-04 03:38 | 40.39645 | 141.04851 | 36484 ft | 605 kts | 1° |
| 2026-05-04 03:39 | 40.47952 | 141.07016 | 36473 ft | 609 kts | 2° |
| 2026-05-04 03:39 | 40.56274 | 141.09209 | 36462 ft | 613 kts | 2° |
| 2026-05-04 03:40 | 40.64581 | 141.11433 | 36019 ft | 602 kts | 1° |
| 2026-05-04 03:40 | 40.68658 | 141.12512 | 35714 ft | 595 kts | 2° |
| 2026-05-04 03:40 | 40.72660 | 141.13574 | 35443 ft | 586 kts | 2° |
| 2026-05-04 03:40 | 40.76614 | 141.14633 | 35162 ft | 577 kts | 2° |
| 2026-05-04 03:41 | 40.80542 | 141.15666 | 34885 ft | 580 kts | 2° |
| 2026-05-04 03:41 | 40.84510 | 141.16717 | 34606 ft | 585 kts | 2° |
| 2026-05-04 03:41 | 40.88508 | 141.17801 | 34152 ft | 586 kts | 2° |
| 2026-05-04 03:41 | 40.92516 | 141.18907 | 33612 ft | 583 kts | 2° |
| 2026-05-04 03:42 | 40.96502 | 141.20006 | 33203 ft | 582 kts | 1° |
| 2026-05-04 03:42 | 41.00409 | 141.21089 | 32732 ft | 578 kts | 1° |
| 2026-05-04 03:42 | 41.04324 | 141.22165 | 32223 ft | 575 kts | 2° |
| 2026-05-04 03:42 | 41.08276 | 141.23250 | 31693 ft | 572 kts | 2° |
| 2026-05-04 03:43 | 41.12151 | 141.24318 | 31162 ft | 569 kts | 2° |
| 2026-05-04 03:43 | 41.15990 | 141.25369 | 30653 ft | 565 kts | 2° |
| 2026-05-04 03:43 | 41.19857 | 141.26433 | 30129 ft | 563 kts | 3° |
| 2026-05-04 03:43 | 41.23676 | 141.27496 | 29617 ft | 560 kts | 2° |
| 2026-05-04 03:44 | 41.27468 | 141.28555 | 29105 ft | 557 kts | 2° |
| 2026-05-04 03:44 | 41.31197 | 141.29591 | 28606 ft | 554 kts | 2° |
| 2026-05-04 03:44 | 41.34975 | 141.30633 | 28112 ft | 551 kts | 2° |
| 2026-05-04 03:44 | 41.38686 | 141.31654 | 27637 ft | 548 kts | 3° |
| 2026-05-04 03:45 | 41.42436 | 141.32695 | 27167 ft | 544 kts | 3° |
| 2026-05-04 03:45 | 41.46123 | 141.33717 | 26735 ft | 540 kts | 3° |
| 2026-05-04 03:45 | 41.49748 | 141.34732 | 26266 ft | 536 kts | 3° |
| 2026-05-04 03:45 | 41.53360 | 141.35742 | 25841 ft | 532 kts | 3° |
| 2026-05-04 03:46 | 41.57000 | 141.36758 | 25369 ft | 529 kts | 3° |
| 2026-05-04 03:46 | 41.60554 | 141.37753 | 24934 ft | 525 kts | 3° |
| 2026-05-04 03:46 | 41.64135 | 141.38753 | 24498 ft | 522 kts | 3° |
| 2026-05-04 03:46 | 41.67691 | 141.39755 | 24046 ft | 519 kts | 2° |
| 2026-05-04 03:47 | 41.71173 | 141.40742 | 23674 ft | 515 kts | 2° |
| 2026-05-04 03:47 | 41.74637 | 141.41708 | 23315 ft | 510 kts | 2° |
| 2026-05-04 03:47 | 41.78118 | 141.42691 | 22903 ft | 507 kts | 3° |
| 2026-05-04 03:47 | 41.81531 | 141.43651 | 22512 ft | 504 kts | 3° |
| 2026-05-04 03:48 | 41.85031 | 141.44626 | 22107 ft | 516 kts | 4° |
| 2026-05-04 03:48 | 41.88516 | 141.45596 | 21684 ft | 514 kts | 4° |
| 2026-05-04 03:48 | 41.92018 | 141.46596 | 21295 ft | 508 kts | 4° |
| 2026-05-04 03:48 | 41.95422 | 141.47565 | 20949 ft | 501 kts | 4° |
| 2026-05-04 03:49 | 41.98795 | 141.48508 | 20553 ft | 495 kts | 4° |
| 2026-05-04 03:49 | 42.02144 | 141.49451 | 20184 ft | 489 kts | 4° |
| 2026-05-04 03:49 | 42.05478 | 141.50386 | 19846 ft | 482 kts | 5° |
| 2026-05-04 03:49 | 42.08707 | 141.51298 | 19496 ft | 475 kts | 5° |
| 2026-05-04 03:50 | 42.11890 | 141.52383 | 19138 ft | 475 kts | 14° |
| 2026-05-04 03:50 | 42.14865 | 141.54262 | 18782 ft | 474 kts | 29° |
| 2026-05-04 03:50 | 42.17570 | 141.56786 | 18430 ft | 470 kts | 35° |
| 2026-05-04 03:50 | 42.20155 | 141.59467 | 18044 ft | 465 kts | 36° |
| 2026-05-04 03:51 | 42.22664 | 141.62115 | 17674 ft | 459 kts | 36° |
| 2026-05-04 03:51 | 42.25164 | 141.64717 | 17297 ft | 454 kts | 35° |
| 2026-05-04 03:51 | 42.27656 | 141.67279 | 16908 ft | 449 kts | 36° |
| 2026-05-04 03:51 | 42.30150 | 141.69823 | 16504 ft | 444 kts | 36° |
| 2026-05-04 03:52 | 42.32573 | 141.72293 | 16152 ft | 439 kts | 35° |
| 2026-05-04 03:52 | 42.35027 | 141.74779 | 15764 ft | 435 kts | 35° |
| 2026-05-04 03:52 | 42.37420 | 141.77199 | 15377 ft | 430 kts | 35° |
| 2026-05-04 03:52 | 42.39824 | 141.79637 | 14987 ft | 426 kts | 35° |
| 2026-05-04 03:53 | 42.42168 | 141.82016 | 14647 ft | 421 kts | 35° |
| 2026-05-04 03:53 | 42.44481 | 141.84363 | 14283 ft | 417 kts | 35° |
| 2026-05-04 03:53 | 42.46810 | 141.86726 | 13942 ft | 412 kts | 35° |
| 2026-05-04 03:53 | 42.49065 | 141.89021 | 13571 ft | 409 kts | 34° |
| 2026-05-04 03:54 | 42.51336 | 141.91333 | 13211 ft | 404 kts | 35° |
| 2026-05-04 03:54 | 42.53562 | 141.93582 | 12859 ft | 399 kts | 32° |
| 2026-05-04 03:54 | 42.56024 | 141.95163 | 12449 ft | 386 kts | 7° |
| 2026-05-04 03:54 | 42.58604 | 141.95264 | 12107 ft | 366 kts | 345° |
| 2026-05-04 03:55 | 42.61100 | 141.94643 | 11770 ft | 359 kts | 342° |
| 2026-05-04 03:55 | 42.63544 | 141.93988 | 11468 ft | 355 kts | 342° |
| 2026-05-04 03:55 | 42.65925 | 141.93385 | 11350 ft | 348 kts | 343° |
| 2026-05-04 03:55 | 42.68294 | 141.92827 | 11345 ft | 347 kts | 343° |
| 2026-05-04 03:56 | 42.70663 | 141.92293 | 11329 ft | 337 kts | 344° |
| 2026-05-04 03:56 | 42.72893 | 141.91815 | 11565 ft | 318 kts | 343° |
| 2026-05-04 03:56 | 42.75069 | 141.91342 | 11694 ft | 312 kts | 343° |
| 2026-05-04 03:56 | 42.77200 | 141.90874 | 11825 ft | 307 kts | 343° |
| 2026-05-04 03:57 | 42.79299 | 141.90414 | 11657 ft | 306 kts | 343° |
| 2026-05-04 03:57 | 42.81440 | 141.89931 | 11058 ft | 314 kts | 344° |
| 2026-05-04 03:57 | 42.83601 | 141.89452 | 10595 ft | 318 kts | 344° |
| 2026-05-04 03:57 | 42.85802 | 141.88969 | 10210 ft | 317 kts | 345° |
| 2026-05-04 03:58 | 42.90143 | 141.88026 | 9482 ft | 315 kts | 344° |
| 2026-05-04 03:58 | 42.92301 | 141.87555 | 9137 ft | 313 kts | 345° |
| 2026-05-04 03:58 | 42.94447 | 141.87085 | 8802 ft | 311 kts | 345° |
| 2026-05-04 03:59 | 42.96591 | 141.86609 | 8459 ft | 310 kts | 345° |
| 2026-05-04 03:59 | 42.98716 | 141.86145 | 8096 ft | 309 kts | 345° |
| 2026-05-04 03:59 | 43.00858 | 141.85675 | 7735 ft | 309 kts | 345° |
| 2026-05-04 03:59 | 43.02990 | 141.85205 | 7169 ft | 316 kts | 345° |
| 2026-05-04 04:00 | 43.05183 | 141.84700 | 6536 ft | 323 kts | 342° |
| 2026-05-04 04:00 | 43.07204 | 141.83525 | 5860 ft | 314 kts | 314° |
| 2026-05-04 04:00 | 43.08435 | 141.81209 | 5397 ft | 295 kts | 282° |
| 2026-05-04 04:00 | 43.08517 | 141.78526 | 5137 ft | 273 kts | 249° |
| 2026-05-04 04:01 | 43.07550 | 141.76431 | 4877 ft | 258 kts | 221° |
| 2026-05-04 04:01 | 43.06216 | 141.74782 | 4419 ft | 262 kts | 221° |
| 2026-05-04 04:01 | 43.04911 | 141.73003 | 3902 ft | 268 kts | 224° |
| 2026-05-04 04:01 | 43.03656 | 141.71109 | 3435 ft | 271 kts | 226° |
| 2026-05-04 04:02 | 43.02444 | 141.69176 | 3160 ft | 267 kts | 227° |
| 2026-05-04 04:02 | 43.01268 | 141.67244 | 2969 ft | 257 kts | 227° |
| 2026-05-04 04:02 | 43.00160 | 141.65500 | 2879 ft | 230 kts | 218° |
| 2026-05-04 04:02 | 42.98741 | 141.64712 | 2420 ft | 219 kts | 177° |
| 2026-05-04 04:03 | 42.97290 | 141.65100 | 2139 ft | 208 kts | 166° |
| 2026-05-04 04:03 | 42.95921 | 141.65529 | 2011 ft | 192 kts | 168° |
| 2026-05-04 04:03 | 42.94677 | 141.65846 | 1972 ft | 171 kts | 170° |
| 2026-05-04 04:03 | 42.93576 | 141.66083 | 1947 ft | 150 kts | 172° |
| 2026-05-04 04:04 | 42.92586 | 141.66287 | 1974 ft | 140 kts | 171° |
| 2026-05-04 04:04 | 42.91638 | 141.66478 | 1974 ft | 139 kts | 172° |
| 2026-05-04 04:04 | 42.90670 | 141.66669 | 1969 ft | 138 kts | 171° |
| 2026-05-04 04:04 | 42.89710 | 141.66850 | 1972 ft | 138 kts | 172° |
| 2026-05-04 04:05 | 42.88747 | 141.67029 | 1963 ft | 138 kts | 172° |
| 2026-05-04 04:05 | 42.87809 | 141.67209 | 1925 ft | 136 kts | 172° |
| 2026-05-04 04:05 | 42.86876 | 141.67377 | 1651 ft | 136 kts | 171° |
| 2026-05-04 04:05 | 42.85944 | 141.67567 | 1333 ft | 136 kts | 172° |
| 2026-05-04 04:06 | 42.85004 | 141.67740 | 971 ft | 136 kts | 172° |
| 2026-05-04 04:06 | 42.84055 | 141.67906 | 601 ft | 136 kts | 173° |
| 2026-05-04 04:06 | 42.83133 | 141.68089 | 512 ft | 134 kts | 172° |
| 2026-05-04 04:06 | 42.82205 | 141.68234 | 513 ft | 130 kts | 175° |
| 2026-05-04 04:07 | 42.81375 | 141.68375 | 399 ft | 115 kts | 173° |
| 2026-05-04 04:07 | 42.80546 | 141.68497 | 405 ft | 127 kts | 174° |
| 2026-05-04 04:07 | 42.79637 | 141.68668 | 346 ft | 138 kts | 173° |
| 2026-05-04 04:07 | 42.78722 | 141.68842 | 105 ft | 127 kts | 173° |
| 2026-05-04 04:08 | 42.77939 | 141.68970 | 80 ft | 88 kts | 175° |
| 2026-05-04 04:08 | 42.77469 | 141.69051 | 80 ft | 43 kts | 173° |
| 2026-05-04 04:08 | 42.77206 | 141.69041 | 78 ft | 22 kts | 200° |
| 2026-05-04 04:08 | 42.77110 | 141.68988 | 79 ft | 11 kts | 205° |
| 2026-05-04 04:09 | 42.77081 | 141.68939 | 80 ft | 6 kts | 267° |
| 2026-05-04 04:09 | 42.77112 | 141.68893 | 80 ft | 8 kts | 339° |
| 2026-05-04 04:09 | 42.77182 | 141.68877 | 80 ft | 11 kts | 353° |
| 2026-05-04 04:09 | 42.77269 | 141.68860 | 80 ft | 14 kts | 352° |
| 2026-05-04 04:10 | 42.77380 | 141.68840 | 81 ft | 17 kts | 353° |
| 2026-05-04 04:10 | 42.77522 | 141.68816 | 81 ft | 24 kts | 352° |
| 2026-05-04 04:10 | 42.77720 | 141.68780 | 82 ft | 32 kts | 353° |
| 2026-05-04 04:10 | 42.77950 | 141.68741 | 81 ft | 34 kts | 352° |
| 2026-05-04 04:11 | 42.78195 | 141.68698 | 81 ft | 36 kts | 353° |
| 2026-05-04 04:11 | 42.78449 | 141.68654 | 83 ft | 36 kts | 353° |
| 2026-05-04 04:11 | 42.78631 | 141.68622 | 86 ft | 18 kts | 352° |
| 2026-05-04 04:11 | 42.78757 | 141.68597 | 87 ft | 14 kts | 351° |
| 2026-05-04 04:12 | 42.78797 | 141.68510 | 90 ft | 5 kts | 265° |
| 2026-05-04 04:12 | 42.78797 | 141.68457 | 91 ft | 6 kts | 276° |
| 2026-05-04 04:12 | 42.78800 | 141.68388 | 91 ft | 7 kts | 265° |
| 2026-05-04 04:12 | 42.78793 | 141.68315 | 92 ft | 7 kts | 262° |
| 2026-05-04 04:13 | 42.78791 | 141.68291 | 92 ft | 0 kts | 262° |
| 2026-05-04 04:13 | 42.78790 | 141.68289 | 92 ft | 0 kts | 262° |
| 2026-05-04 04:13 | 42.78789 | 141.68278 | 93 ft | 0 kts | 262° |